Time;durP1;ratioP1;P1;durP2;ratioP2;P2;SDS_P1;SDS_P2;PMS_P1;PMS_P2;Temp;Humidity;BMP_temperature;BMP_pressure;BME280_temperature;BME280_humidity;BME280_pressure;Samples;Min_cycle;Max_cycle;Signal;HPM_P1;HPM_P2
2023/08/01 00:00:12;;;;;;;4.15;2.35;;;21.30;67.10;;;;;;5023955;28;20025;-51
2023/08/01 00:02:38;;;;;;;4.22;2.35;;;21.30;67.00;;;;;;5025066;28;20045;-51
2023/08/01 00:05:04;;;;;;;3.55;2.03;;;21.30;66.80;;;;;;5021461;28;20029;-50
2023/08/01 00:07:30;;;;;;;3.95;2.50;;;21.30;67.00;;;;;;5020450;28;20079;-52
2023/08/01 00:09:55;;;;;;;3.60;2.55;;;21.30;67.00;;;;;;5022111;28;20072;-53
2023/08/01 00:12:21;;;;;;;4.38;2.40;;;21.30;67.00;;;;;;5026114;28;20117;-52
2023/08/01 00:14:47;;;;;;;3.72;2.10;;;21.30;66.90;;;;;;5016563;28;20568;-51
2023/08/01 00:17:13;;;;;;;2.67;1.77;;;21.20;67.10;;;;;;5013318;28;20060;-50
2023/08/01 00:19:38;;;;;;;3.65;2.70;;;21.30;67.10;;;;;;5020903;28;20033;-52
2023/08/01 00:22:04;;;;;;;4.05;1.98;;;21.30;67.00;;;;;;5014135;28;21939;-54
2023/08/01 00:24:29;;;;;;;2.97;2.03;;;21.20;67.30;;;;;;5017249;28;20053;-52
2023/08/01 00:26:55;;;;;;;4.50;2.80;;;21.20;67.10;;;;;;5023329;28;20058;-50
2023/08/01 00:29:21;;;;;;;3.42;2.45;;;21.30;67.30;;;;;;5021233;28;20578;-50
2023/08/01 00:31:47;;;;;;;5.38;2.00;;;21.30;67.20;;;;;;5022019;28;20091;-51
2023/08/01 00:34:12;;;;;;;3.88;2.55;;;21.30;67.40;;;;;;5014318;28;20030;-51
2023/08/01 00:36:38;;;;;;;2.67;1.90;;;21.30;67.30;;;;;;5025056;28;20080;-50
2023/08/01 00:39:03;;;;;;;4.10;2.35;;;21.30;67.20;;;;;;5020753;28;20700;-50
2023/08/01 00:41:29;;;;;;;3.03;2.22;;;21.30;67.10;;;;;;5012701;28;20394;-51
2023/08/01 00:43:55;;;;;;;3.45;2.60;;;21.30;67.10;;;;;;5024712;28;20064;-50
2023/08/01 00:46:20;;;;;;;3.08;2.20;;;21.30;67.00;;;;;;5014820;28;20121;-50
2023/08/01 00:48:46;;;;;;;3.47;2.17;;;21.30;67.00;;;;;;5014947;28;20061;-51
2023/08/01 00:51:12;;;;;;;4.40;2.20;;;21.30;67.10;;;;;;5015971;28;20034;-52
2023/08/01 00:53:39;;;;;;;3.65;2.55;;;21.20;67.10;;;;;;5018513;28;20037;-50
2023/08/01 00:56:04;;;;;;;5.72;2.47;;;21.30;67.20;;;;;;5019820;28;20033;-50
2023/08/01 00:58:30;;;;;;;3.28;1.85;;;21.30;67.20;;;;;;5012902;28;20442;-50
2023/08/01 01:00:56;;;;;;;3.08;2.40;;;21.30;67.00;;;;;;5015954;28;20465;-50
2023/08/01 01:03:23;;;;;;;3.85;2.28;;;21.30;66.90;;;;;;5050882;22;20116;-50
2023/08/01 01:06:22;;;;;;;3.42;2.10;;;21.30;67.30;;;;;;5033168;28;20029;-51
2023/08/01 01:08:47;;;;;;;3.90;2.33;;;21.20;67.20;;;;;;5053289;28;20030;-52
2023/08/01 01:11:13;;;;;;;3.17;2.20;;;21.20;67.90;;;;;;5051253;28;20043;-50
2023/08/01 01:13:39;;;;;;;3.72;2.38;;;21.20;67.20;;;;;;5044018;28;20080;-51
2023/08/01 01:16:04;;;;;;;3.50;1.83;;;21.20;67.30;;;;;;5048483;28;20039;-51
2023/08/01 01:18:30;;;;;;;3.28;2.15;;;21.30;67.40;;;;;;5035974;28;21946;-53
2023/08/01 01:20:55;;;;;;;2.67;2.08;;;21.20;67.20;;;;;;5037993;28;20036;-50
2023/08/01 01:23:22;;;;;;;2.13;1.90;;;21.20;67.40;;;;;;5040835;28;20125;-50
2023/08/01 01:25:50;;;;;;;4.35;2.50;;;21.20;67.40;;;;;;5037329;28;20229;-52
2023/08/01 01:28:16;;;;;;;3.42;2.60;;;21.20;67.50;;;;;;5040105;28;20029;-51
2023/08/01 01:30:43;;;;;;;3.47;2.20;;;21.20;67.40;;;;;;5037004;28;20075;-51
2023/08/01 01:33:09;;;;;;;2.60;2.00;;;21.20;67.40;;;;;;5033561;28;20029;-51
2023/08/01 01:35:35;;;;;;;2.67;1.90;;;21.20;67.80;;;;;;5033161;28;20478;-50
2023/08/01 01:38:03;;;;;;;4.78;2.50;;;21.30;67.50;;;;;;5049844;28;20434;-51
2023/08/01 01:40:30;;;;;;;2.88;2.10;;;21.20;67.50;;;;;;5051964;28;20024;-51
2023/08/01 01:42:56;;;;;;;3.83;1.90;;;21.20;67.40;;;;;;5046525;28;20029;-50
2023/08/01 01:45:21;;;;;;;2.42;1.85;;;21.20;67.50;;;;;;5049297;28;20075;-50
2023/08/01 01:47:47;;;;;;;3.08;2.30;;;21.20;67.40;;;;;;5050924;28;20033;-52
2023/08/01 01:50:12;;;;;;;2.80;1.92;;;21.20;67.40;;;;;;5054447;28;20119;-53
2023/08/01 01:52:38;;;;;;;3.13;2.30;;;21.20;67.40;;;;;;5048203;28;20033;-50
2023/08/01 01:55:04;;;;;;;2.95;2.30;;;21.20;67.40;;;;;;5050694;28;20459;-52
2023/08/01 01:57:29;;;;;;;3.53;2.50;;;21.20;67.20;;;;;;5050899;28;20455;-51
2023/08/01 01:59:55;;;;;;;3.28;2.20;;;21.20;67.30;;;;;;5049749;28;20112;-52
2023/08/01 02:02:20;;;;;;;2.58;2.28;;;21.20;67.40;;;;;;5045440;28;20135;-50
2023/08/01 02:04:48;;;;;;;4.75;2.08;;;21.20;67.40;;;;;;5048766;28;20382;-50
2023/08/01 02:07:14;;;;;;;2.28;2.08;;;21.20;67.60;;;;;;5052209;28;20025;-51
2023/08/01 02:09:40;;;;;;;2.80;1.90;;;21.20;67.40;;;;;;5042428;28;20040;-49
2023/08/01 02:12:08;;;;;;;2.35;1.70;;;21.20;67.30;;;;;;5043912;28;20116;-53
2023/08/01 02:14:33;;;;;;;4.68;2.53;;;21.20;67.50;;;;;;5049218;28;20558;-52
2023/08/01 02:16:59;;;;;;;3.55;2.08;;;21.20;67.40;;;;;;5043670;28;20124;-50
2023/08/01 02:19:24;;;;;;;2.40;1.73;;;21.20;67.40;;;;;;5035360;28;20029;-52
2023/08/01 02:21:50;;;;;;;3.17;2.17;;;21.20;67.40;;;;;;5031769;28;20030;-54
2023/08/01 02:24:15;;;;;;;3.03;1.92;;;21.20;67.60;;;;;;5035111;28;20032;-55
2023/08/01 02:26:41;;;;;;;3.28;1.95;;;21.20;67.60;;;;;;5032783;28;20067;-51
2023/08/01 02:29:06;;;;;;;2.78;2.13;;;21.20;67.50;;;;;;5035601;28;20547;-50
2023/08/01 02:31:32;;;;;;;3.88;2.15;;;21.20;67.50;;;;;;5035185;28;20025;-51
2023/08/01 02:33:57;;;;;;;2.83;1.90;;;21.20;67.50;;;;;;5040197;28;20028;-49
2023/08/01 02:36:23;;;;;;;2.72;2.13;;;21.20;67.60;;;;;;5028527;28;20040;-50
2023/08/01 02:38:48;;;;;;;2.80;2.25;;;21.20;67.70;;;;;;5041890;28;20029;-51
2023/08/01 02:41:14;;;;;;;3.20;2.20;;;21.20;67.70;;;;;;5056445;28;20032;-50
2023/08/01 02:43:39;;;;;;;2.65;1.85;;;21.20;67.90;;;;;;5056556;28;20748;-50
2023/08/01 02:46:05;;;;;;;2.83;2.00;;;21.10;67.70;;;;;;5047119;28;21656;-50
2023/08/01 02:48:32;;;;;;;2.83;2.03;;;21.10;67.70;;;;;;5047776;28;20490;-51
2023/08/01 02:50:58;;;;;;;2.45;2.00;;;21.20;67.70;;;;;;5053923;28;20103;-50
2023/08/01 02:53:23;;;;;;;3.85;1.85;;;21.20;67.60;;;;;;5044267;28;20112;-53
2023/08/01 02:55:49;;;;;;;2.75;1.88;;;21.20;67.70;;;;;;5051203;28;20682;-52
2023/08/01 02:58:14;;;;;;;3.55;2.20;;;21.20;67.70;;;;;;5039286;28;20033;-50
2023/08/01 03:00:40;;;;;;;3.08;2.15;;;21.10;67.60;;;;;;5048230;28;20025;-52
2023/08/01 03:03:06;;;;;;;2.35;1.85;;;21.10;67.60;;;;;;5044133;28;20602;-50
2023/08/01 03:05:32;;;;;;;3.20;2.28;;;21.10;67.60;;;;;;5041397;28;20033;-50
2023/08/01 03:07:58;;;;;;;2.63;1.95;;;21.10;67.70;;;;;;5049322;28;20043;-50
2023/08/01 03:10:24;;;;;;;2.83;1.95;;;21.10;67.60;;;;;;5051816;28;20029;-51
2023/08/01 03:12:49;;;;;;;3.00;2.38;;;21.10;68.00;;;;;;5044751;28;20038;-51
2023/08/01 03:15:15;;;;;;;2.67;1.88;;;21.10;67.90;;;;;;5060809;28;20108;-51
2023/08/01 03:17:40;;;;;;;4.82;2.33;;;21.10;67.70;;;;;;5038522;28;20253;-51
2023/08/01 03:20:10;;;;;;;3.08;1.95;;;21.10;67.60;;;;;;5037953;28;20112;-51
2023/08/01 03:22:37;;;;;;;2.53;1.70;;;21.20;67.60;;;;;;5037146;28;20064;-50
2023/08/01 03:25:07;;;;;;;2.17;1.70;;;21.10;67.50;;;;;;5039308;28;20040;-51
2023/08/01 03:27:33;;;;;;;3.45;1.65;;;21.10;67.80;;;;;;5033077;28;20093;-51
2023/08/01 03:29:58;;;;;;;2.03;1.63;;;21.10;67.90;;;;;;5034633;28;20036;-52
2023/08/01 03:32:24;;;;;;;2.13;1.60;;;21.10;67.90;;;;;;5032256;28;20037;-52
2023/08/01 03:34:49;;;;;;;2.17;1.85;;;21.10;68.00;;;;;;5032061;28;20056;-51
2023/08/01 03:37:16;;;;;;;2.03;1.58;;;21.10;67.90;;;;;;5027608;28;20509;-50
2023/08/01 03:39:41;;;;;;;2.25;1.23;;;21.10;68.00;;;;;;5038316;28;20033;-51
2023/08/01 03:42:07;;;;;;;2.20;1.80;;;21.10;67.80;;;;;;5028476;28;20070;-51
2023/08/01 03:44:33;;;;;;;2.47;1.80;;;21.10;67.90;;;;;;5032305;28;20029;-50
2023/08/01 03:46:59;;;;;;;3.15;1.77;;;21.20;67.80;;;;;;5029393;28;20076;-52
2023/08/01 03:49:25;;;;;;;2.00;1.80;;;21.10;67.80;;;;;;5030353;28;20682;-50
2023/08/01 03:51:50;;;;;;;2.30;1.80;;;21.10;67.70;;;;;;5030584;28;20033;-50
2023/08/01 03:54:16;;;;;;;2.00;1.60;;;21.10;67.80;;;;;;5023617;28;20113;-51
2023/08/01 03:56:43;;;;;;;2.47;1.65;;;21.10;67.80;;;;;;5031074;28;20655;-50
2023/08/01 03:59:10;;;;;;;3.10;1.77;;;21.10;67.90;;;;;;5027837;28;20116;-53
2023/08/01 04:01:35;;;;;;;1.98;1.70;;;21.10;67.70;;;;;;5039892;28;20383;-49
2023/08/01 04:04:01;;;;;;;2.47;1.70;;;21.10;67.80;;;;;;5033738;28;20086;-52
2023/08/01 04:06:26;;;;;;;1.92;1.70;;;21.10;67.90;;;;;;5024988;28;20078;-53
2023/08/01 04:08:52;;;;;;;2.38;1.65;;;21.10;67.80;;;;;;5036412;28;20117;-50
2023/08/01 04:11:18;;;;;;;3.45;1.77;;;21.10;67.80;;;;;;5035705;28;20116;-50
2023/08/01 04:13:43;;;;;;;2.03;1.70;;;21.10;67.50;;;;;;5030882;28;20037;-53
2023/08/01 04:16:09;;;;;;;2.10;1.60;;;21.10;67.70;;;;;;5036366;28;20056;-50
2023/08/01 04:18:34;;;;;;;2.50;1.67;;;21.10;67.80;;;;;;5034780;28;20029;-51
2023/08/01 04:21:01;;;;;;;1.90;1.40;;;21.10;67.70;;;;;;5037165;28;20609;-50
2023/08/01 04:23:27;;;;;;;2.97;1.58;;;21.10;67.80;;;;;;5034608;28;20026;-50
2023/08/01 04:25:53;;;;;;;2.83;1.30;;;21.10;67.70;;;;;;5037527;28;20037;-52
2023/08/01 04:28:19;;;;;;;2.13;1.45;;;21.10;67.90;;;;;;5036739;28;20028;-50
2023/08/01 04:30:51;;;;;;;1.75;1.38;;;21.20;67.90;;;;;;5036991;28;20033;-52
2023/08/01 04:33:17;;;;;;;2.30;1.98;;;21.20;68.00;;;;;;5037655;28;20090;-53
2023/08/01 04:35:42;;;;;;;3.03;1.52;;;21.20;68.00;;;;;;5031264;28;20534;-50
2023/08/01 04:38:11;;;;;;;1.95;1.35;;;21.20;68.60;;;;;;5040575;28;20681;-52
2023/08/01 04:40:36;;;;;;;3.47;1.25;;;21.10;68.00;;;;;;5031803;28;20040;-51
2023/08/01 04:43:02;;;;;;;3.42;1.38;;;21.20;67.80;;;;;;5029154;28;20045;-50
2023/08/01 04:45:28;;;;;;;2.15;1.60;;;21.10;67.90;;;;;;5045399;28;20166;-51
2023/08/01 04:47:53;;;;;;;1.50;1.23;;;21.10;67.80;;;;;;5037000;28;20485;-52
2023/08/01 04:50:19;;;;;;;3.03;1.50;;;21.10;68.00;;;;;;5044810;28;20694;-49
2023/08/01 04:52:45;;;;;;;1.70;1.40;;;21.10;67.80;;;;;;5036461;28;20025;-49
2023/08/01 04:55:10;;;;;;;2.67;1.30;;;21.10;68.00;;;;;;5040166;28;20037;-50
2023/08/01 04:57:36;;;;;;;1.75;1.30;;;21.10;68.10;;;;;;5041756;28;20041;-55
2023/08/01 05:00:03;;;;;;;1.67;1.35;;;21.10;68.00;;;;;;5040214;28;20056;-51
2023/08/01 05:02:29;;;;;;;1.98;1.50;;;21.10;68.10;;;;;;5033472;28;20076;-52
2023/08/01 05:04:54;;;;;;;2.55;1.40;;;21.10;68.40;;;;;;5037928;28;20099;-51
2023/08/01 05:07:20;;;;;;;1.67;1.45;;;21.10;68.40;;;;;;5039780;28;20037;-54
2023/08/01 05:09:46;;;;;;;1.98;1.30;;;21.10;68.20;;;;;;5035668;28;20029;-52
2023/08/01 05:12:11;;;;;;;2.20;1.10;;;21.00;68.30;;;;;;5034843;28;20501;-52
2023/08/01 05:14:37;;;;;;;1.50;1.35;;;21.10;68.80;;;;;;5042133;28;20032;-52
2023/08/01 05:17:03;;;;;;;1.80;1.40;;;21.00;68.50;;;;;;5038395;28;20041;-49
2023/08/01 05:19:29;;;;;;;4.95;1.30;;;21.00;68.80;;;;;;5035711;28;20029;-52
2023/08/01 05:21:55;;;;;;;3.30;1.67;;;21.00;68.70;;;;;;5038269;28;20556;-50
2023/08/01 05:24:20;;;;;;;1.85;1.40;;;20.90;69.50;;;;;;5038227;28;20025;-49
2023/08/01 05:26:46;;;;;;;1.80;1.10;;;21.00;69.30;;;;;;5040615;28;20043;-49
2023/08/01 05:29:12;;;;;;;3.25;1.45;;;20.90;69.90;;;;;;5039156;28;20036;-51
2023/08/01 05:31:37;;;;;;;4.70;1.52;;;20.90;69.50;;;;;;5040618;28;20028;-52
2023/08/01 05:34:03;;;;;;;2.20;1.35;;;20.90;69.50;;;;;;5037979;28;20375;-55
2023/08/01 05:36:28;;;;;;;3.80;2.08;;;21.00;69.50;;;;;;5033881;28;20025;-53
2023/08/01 05:38:54;;;;;;;4.00;2.40;;;21.00;69.70;;;;;;5033739;28;20497;-52
2023/08/01 05:41:19;;;;;;;6.43;3.97;;;20.90;69.60;;;;;;5039121;28;20135;-51
2023/08/01 05:43:48;;;;;;;5.53;3.92;;;20.90;70.10;;;;;;5037013;28;20025;-52
2023/08/01 05:46:13;;;;;;;5.28;3.13;;;20.90;70.30;;;;;;5032087;28;20032;-52
2023/08/01 05:48:39;;;;;;;5.47;3.38;;;20.90;70.00;;;;;;5031803;28;20368;-51
2023/08/01 05:51:04;;;;;;;4.32;3.03;;;20.90;69.70;;;;;;5033603;28;20041;-54
2023/08/01 05:53:30;;;;;;;5.10;2.85;;;21.00;70.00;;;;;;5040676;28;20036;-52
2023/08/01 05:55:55;;;;;;;3.72;3.00;;;20.90;69.70;;;;;;5035678;28;20028;-50
2023/08/01 05:58:21;;;;;;;4.25;2.97;;;20.90;69.70;;;;;;5027729;28;20030;-51
2023/08/01 06:00:46;;;;;;;4.85;3.10;;;20.90;70.10;;;;;;5043748;28;20096;-54
2023/08/01 06:03:12;;;;;;;5.10;2.90;;;20.80;69.90;;;;;;5038489;28;20037;-53
2023/08/01 06:05:38;;;;;;;4.55;2.65;;;20.90;69.80;;;;;;5036184;28;20033;-53
2023/08/01 06:08:05;;;;;;;3.25;2.58;;;20.90;69.60;;;;;;5037895;28;20647;-51
2023/08/01 06:10:30;;;;;;;3.25;2.60;;;20.90;69.90;;;;;;5038750;28;20041;-51
2023/08/01 06:12:56;;;;;;;4.32;2.63;;;20.90;70.00;;;;;;5034943;28;20402;-51
2023/08/01 06:15:22;;;;;;;2.80;2.50;;;20.90;70.00;;;;;;5034448;28;20505;-49
2023/08/01 06:17:47;;;;;;;3.10;2.35;;;20.80;70.20;;;;;;5037796;28;20113;-54
2023/08/01 06:20:13;;;;;;;2.70;2.05;;;20.80;70.40;;;;;;5031705;28;20076;-51
2023/08/01 06:22:39;;;;;;;2.85;2.33;;;20.90;70.30;;;;;;5033353;28;20587;-51
2023/08/01 06:25:05;;;;;;;3.53;2.65;;;20.80;70.80;;;;;;5038936;28;20048;-52
2023/08/01 06:27:30;;;;;;;6.18;2.28;;;20.80;70.50;;;;;;5039273;28;20037;-49
2023/08/01 06:29:56;;;;;;;5.43;2.00;;;20.80;70.60;;;;;;5034905;28;20083;-50
2023/08/01 06:32:21;;;;;;;2.40;2.10;;;20.90;70.60;;;;;;5036954;28;20454;-50
2023/08/01 06:34:46;;;;;;;3.03;2.00;;;20.90;70.40;;;;;;5035470;28;20025;-53
2023/08/01 06:37:12;;;;;;;2.53;2.03;;;20.90;70.60;;;;;;5026401;28;20037;-51
2023/08/01 06:39:37;;;;;;;2.45;2.25;;;20.90;70.60;;;;;;5028096;28;20040;-49
2023/08/01 06:42:03;;;;;;;4.55;2.42;;;20.90;70.40;;;;;;5044029;28;20072;-51
2023/08/01 06:44:29;;;;;;;5.45;2.50;;;20.90;70.40;;;;;;5038845;28;20049;-51
2023/08/01 06:46:54;;;;;;;5.28;2.80;;;21.00;70.90;;;;;;5043584;28;20056;-51
2023/08/01 06:49:20;;;;;;;3.60;2.17;;;21.00;71.20;;;;;;5030714;28;20035;-51
2023/08/01 06:51:46;;;;;;;2.95;2.20;;;20.90;70.80;;;;;;5040600;28;20017;-49
2023/08/01 06:54:11;;;;;;;2.60;1.77;;;21.00;71.60;;;;;;5038877;28;20536;-51
2023/08/01 06:56:37;;;;;;;3.08;2.05;;;21.00;71.50;;;;;;5032735;28;20444;-49
2023/08/01 06:59:03;;;;;;;2.67;2.03;;;20.90;71.70;;;;;;5027890;28;20187;-50
2023/08/01 07:01:28;;;;;;;4.30;1.83;;;20.90;71.90;;;;;;5034554;28;20454;-51
2023/08/01 07:03:54;;;;;;;3.80;1.85;;;20.90;71.60;;;;;;5034076;28;20129;-52
2023/08/01 07:06:20;;;;;;;3.33;1.88;;;21.00;71.40;;;;;;5036612;28;20445;-51
2023/08/01 07:08:45;;;;;;;5.50;2.55;;;21.00;71.70;;;;;;5030167;28;20029;-48
2023/08/01 07:11:11;;;;;;;5.22;2.10;;;21.00;72.10;;;;;;5035408;28;20053;-50
2023/08/01 07:13:36;;;;;;;3.72;2.00;;;21.00;71.50;;;;;;5035269;28;20162;-51
2023/08/01 07:16:02;;;;;;;4.97;1.98;;;21.10;71.80;;;;;;5032274;28;20090;-53
2023/08/01 07:18:28;;;;;;;3.45;2.63;;;21.10;71.90;;;;;;5035554;28;20028;-50
2023/08/01 07:21:04;;;;;;;2.80;2.05;;;21.10;71.60;;;;;;5036554;28;20037;-51
2023/08/01 07:23:30;;;;;;;4.45;1.88;;;21.00;71.40;;;;;;5032431;28;20025;-50
2023/08/01 07:25:56;;;;;;;3.83;2.03;;;21.00;71.50;;;;;;5030936;28;20759;-49
2023/08/01 07:28:22;;;;;;;3.95;2.10;;;21.00;71.60;;;;;;5033097;28;20076;-50
2023/08/01 07:30:47;;;;;;;3.97;2.08;;;21.10;71.50;;;;;;5033068;28;20032;-50
2023/08/01 07:33:13;;;;;;;3.75;1.80;;;21.00;71.50;;;;;;5035799;28;20036;-52
2023/08/01 07:35:38;;;;;;;4.35;2.00;;;21.10;71.40;;;;;;5034718;28;20024;-50
2023/08/01 07:38:04;;;;;;;8.13;2.33;;;21.10;71.50;;;;;;5023918;28;20037;-52
2023/08/01 07:40:29;;;;;;;3.92;2.40;;;21.10;71.30;;;;;;5040027;28;20032;-50
2023/08/01 07:42:55;;;;;;;3.85;2.10;;;21.10;71.30;;;;;;5040325;28;20037;-51
2023/08/01 07:45:21;;;;;;;2.75;2.00;;;21.10;71.30;;;;;;5036980;28;20040;-53
2023/08/01 07:47:47;;;;;;;2.63;1.73;;;21.10;71.00;;;;;;5036986;28;20022;-50
2023/08/01 07:50:12;;;;;;;3.60;1.90;;;21.10;71.30;;;;;;5032418;28;20845;-51
2023/08/01 07:52:38;;;;;;;3.15;1.88;;;21.10;70.90;;;;;;5033381;28;20033;-52
2023/08/01 07:55:04;;;;;;;1.95;1.45;;;21.00;71.30;;;;;;5032304;28;20057;-50
2023/08/01 07:57:29;;;;;;;4.53;1.65;;;21.10;71.00;;;;;;5034192;28;20040;-50
2023/08/01 07:59:55;;;;;;;3.60;1.50;;;21.00;70.80;;;;;;5036158;28;20041;-50
2023/08/01 08:02:20;;;;;;;2.42;1.60;;;21.00;71.00;;;;;;5028919;28;20038;-50
2023/08/01 08:04:46;;;;;;;3.78;1.92;;;21.10;71.00;;;;;;5032739;28;20498;-49
2023/08/01 08:07:12;;;;;;;2.42;1.55;;;21.10;70.90;;;;;;5033125;28;20640;-51
2023/08/01 08:09:37;;;;;;;2.88;1.58;;;21.10;70.90;;;;;;5031450;28;20029;-53
2023/08/01 08:12:03;;;;;;;3.42;1.75;;;21.10;71.10;;;;;;5031790;28;20037;-53
2023/08/01 08:14:30;;;;;;;2.50;1.75;;;21.10;71.10;;;;;;5035718;28;20079;-49
2023/08/01 08:16:55;;;;;;;5.10;1.50;;;21.10;71.40;;;;;;5035856;28;20033;-49
2023/08/01 08:19:20;;;;;;;3.60;1.60;;;21.10;71.00;;;;;;5038563;28;20037;-50
2023/08/01 08:21:46;;;;;;;2.72;1.52;;;21.20;71.50;;;;;;5041123;28;20125;-51
2023/08/01 08:24:11;;;;;;;3.75;1.50;;;21.20;71.30;;;;;;5037131;28;20052;-49
2023/08/01 08:26:39;;;;;;;2.78;1.40;;;21.20;70.90;;;;;;5032537;28;20095;-52
2023/08/01 08:29:05;;;;;;;1.73;1.30;;;21.20;70.80;;;;;;5035948;28;20040;-53
2023/08/01 08:31:31;;;;;;;3.47;1.40;;;21.20;70.70;;;;;;5038053;28;20030;-50
2023/08/01 08:33:56;;;;;;;2.38;1.33;;;21.20;70.50;;;;;;5035849;28;20039;-50
2023/08/01 08:36:22;;;;;;;1.98;1.60;;;21.20;70.70;;;;;;5025570;28;20032;-50
2023/08/01 08:38:47;;;;;;;2.78;1.55;;;21.20;70.50;;;;;;5043675;28;20386;-51
2023/08/01 08:41:27;;;;;;;3.28;1.52;;;21.20;70.50;;;;;;5033283;28;20119;-53
2023/08/01 08:43:57;;;;;;;3.05;1.75;;;21.20;70.20;;;;;;5036111;28;20499;-50
2023/08/01 08:46:28;;;;;;;2.25;1.27;;;21.20;70.50;;;;;;5038024;28;20033;-50
2023/08/01 08:48:56;;;;;;;1.98;1.23;;;21.20;70.30;;;;;;5043786;28;20726;-50
2023/08/01 08:51:21;;;;;;;1.77;1.35;;;21.20;70.60;;;;;;5041356;28;20021;-53
2023/08/01 08:53:49;;;;;;;1.83;1.25;;;21.20;70.40;;;;;;5041199;28;20417;-51
2023/08/01 08:56:15;;;;;;;2.28;1.40;;;21.20;70.60;;;;;;5034457;28;20039;-50
2023/08/01 08:58:41;;;;;;;2.05;1.38;;;21.20;70.80;;;;;;5041428;28;20375;-50
2023/08/01 09:01:08;;;;;;;2.30;1.23;;;21.20;70.70;;;;;;5040222;28;20021;-49
2023/08/01 09:03:33;;;;;;;3.78;1.52;;;21.20;71.10;;;;;;5045092;28;20376;-53
2023/08/01 09:06:14;;;;;;;2.60;1.30;;;21.10;71.00;;;;;;5047262;28;20560;-50
2023/08/01 09:08:43;;;;;;;2.13;1.50;;;21.10;70.50;;;;;;5037960;28;20393;-52
2023/08/01 09:11:08;;;;;;;3.95;1.58;;;21.10;71.10;;;;;;5033324;28;20035;-52
2023/08/01 09:13:35;;;;;;;3.92;1.52;;;21.20;71.60;;;;;;5032441;28;20041;-52
2023/08/01 09:16:02;;;;;;;3.33;1.30;;;21.10;71.80;;;;;;5036030;28;20595;-51
2023/08/01 09:18:28;;;;;;;2.50;1.60;;;21.20;71.80;;;;;;5037410;28;20037;-50
2023/08/01 09:20:53;;;;;;;3.15;1.27;;;21.20;71.80;;;;;;5033537;28;20040;-52
2023/08/01 09:23:19;;;;;;;1.70;1.10;;;21.20;72.10;;;;;;5039775;28;20059;-54
2023/08/01 09:25:45;;;;;;;3.58;1.35;;;21.20;71.30;;;;;;5036141;28;20402;-49
2023/08/01 09:28:18;;;;;;;1.30;1.00;;;21.20;71.60;;;;;;5034189;28;20040;-50
2023/08/01 09:30:54;;;;;;;2.78;1.25;;;21.20;71.50;;;;;;5028016;28;20029;-51
2023/08/01 09:33:20;;;;;;;1.60;1.10;;;21.20;70.90;;;;;;5030129;28;20030;-50
2023/08/01 09:35:46;;;;;;;1.88;1.50;;;21.20;70.70;;;;;;5033344;28;20091;-54
2023/08/01 09:38:18;;;;;;;4.00;1.42;;;21.30;70.60;;;;;;5027471;28;20402;-55
2023/08/01 09:40:45;;;;;;;1.77;1.23;;;21.30;71.00;;;;;;5027669;28;20060;-52
2023/08/01 09:43:12;;;;;;;2.53;1.38;;;21.30;70.90;;;;;;5038568;28;20055;-51
2023/08/01 09:45:48;;;;;;;2.05;1.20;;;21.30;70.50;;;;;;5039689;28;20032;-52
2023/08/01 09:48:25;;;;;;;2.42;1.10;;;21.30;70.20;;;;;;5016453;28;20360;-52
2023/08/01 09:50:51;;;;;;;1.58;1.02;;;21.30;70.10;;;;;;5026506;28;20032;-53
2023/08/01 09:53:16;;;;;;;1.33;1.00;;;21.30;70.20;;;;;;5044308;28;20116;-53
2023/08/01 09:55:45;;;;;;;1.65;1.10;;;21.30;70.70;;;;;;5037503;28;20052;-51
2023/08/01 09:58:13;;;;;;;2.38;1.20;;;21.30;70.20;;;;;;5039211;28;20032;-54
2023/08/01 10:00:39;;;;;;;1.25;0.80;;;21.30;70.70;;;;;;5036469;28;20038;-54
2023/08/01 10:03:05;;;;;;;2.03;1.20;;;21.30;70.10;;;;;;5032501;28;20064;-51
2023/08/01 10:05:32;;;;;;;2.20;1.13;;;21.30;70.20;;;;;;5042288;28;20029;-52
2023/08/01 10:08:02;;;;;;;3.28;0.88;;;21.30;70.20;;;;;;5037124;28;20044;-52
2023/08/01 10:10:28;;;;;;;1.77;0.90;;;21.30;70.10;;;;;;5025285;28;20034;-51
2023/08/01 10:12:56;;;;;;;1.77;0.80;;;21.30;70.00;;;;;;5020057;28;20029;-50
2023/08/01 10:15:26;;;;;;;1.63;1.42;;;21.30;70.10;;;;;;5018694;28;20030;-53
2023/08/01 10:17:51;;;;;;;2.88;0.98;;;21.30;70.50;;;;;;5018064;28;20033;-54
2023/08/01 10:20:19;;;;;;;2.30;0.98;;;21.30;70.00;;;;;;5010518;28;20140;-51
2023/08/01 10:22:44;;;;;;;3.88;0.90;;;21.30;70.10;;;;;;5035334;28;20099;-52
2023/08/01 10:25:11;;;;;;;1.40;0.82;;;21.30;70.10;;;;;;5033880;28;20080;-52
2023/08/01 10:27:37;;;;;;;1.58;1.00;;;21.30;70.10;;;;;;5015503;28;20083;-50
2023/08/01 10:30:04;;;;;;;2.20;1.15;;;21.30;70.30;;;;;;5034906;28;20037;-50
2023/08/01 10:32:35;;;;;;;1.75;1.13;;;21.30;70.30;;;;;;5036146;28;20514;-52
2023/08/01 10:35:01;;;;;;;2.92;0.98;;;21.30;70.30;;;;;;5033198;28;20399;-52
2023/08/01 10:37:47;;;;;;;2.22;1.05;;;21.30;70.20;;;;;;5036149;28;20067;-49
2023/08/01 10:40:13;;;;;;;1.92;1.00;;;21.30;70.10;;;;;;5037676;28;20037;-50
2023/08/01 10:42:45;;;;;;;2.05;1.10;;;21.30;70.20;;;;;;5023512;28;20033;-50
2023/08/01 10:45:22;;;;;;;1.23;0.88;;;21.30;70.10;;;;;;5028934;28;20036;-50
2023/08/01 10:47:51;;;;;;;2.08;0.95;;;21.30;69.80;;;;;;5035834;28;20029;-54
2023/08/01 10:50:17;;;;;;;1.92;1.00;;;21.30;69.90;;;;;;5032792;28;20033;-55
2023/08/01 10:52:44;;;;;;;2.47;1.55;;;21.30;69.90;;;;;;5035496;28;20025;-50
2023/08/01 10:55:10;;;;;;;1.63;1.00;;;21.30;70.20;;;;;;5039024;28;20113;-51
2023/08/01 10:57:38;;;;;;;1.27;0.82;;;21.30;69.80;;;;;;5038598;28;20029;-52
2023/08/01 11:00:09;;;;;;;2.33;1.20;;;21.30;70.10;;;;;;5037162;28;20060;-54
2023/08/01 11:02:37;;;;;;;2.67;1.23;;;21.30;70.10;;;;;;5035527;28;20034;-51
2023/08/01 11:05:05;;;;;;;2.60;0.90;;;21.40;69.90;;;;;;5037332;28;20038;-54
2023/08/01 11:07:31;;;;;;;1.88;1.17;;;21.30;70.10;;;;;;5032729;28;20098;-52
2023/08/01 11:10:10;;;;;;;2.63;1.33;;;21.40;70.10;;;;;;5026637;28;20030;-50
2023/08/01 11:12:37;;;;;;;2.70;0.80;;;21.30;69.90;;;;;;5035114;28;20029;-51
2023/08/01 11:15:05;;;;;;;1.92;0.93;;;21.20;70.50;;;;;;5050096;28;20041;-51
2023/08/01 11:17:32;;;;;;;2.42;1.00;;;21.10;71.00;;;;;;5043232;28;20029;-51
2023/08/01 11:20:02;;;;;;;6.20;1.15;;;21.10;71.00;;;;;;5040973;28;20063;-51
2023/08/01 11:22:28;;;;;;;1.20;1.00;;;21.10;70.70;;;;;;5042817;28;20041;-52
2023/08/01 11:24:54;;;;;;;2.50;1.02;;;21.20;70.90;;;;;;5042667;28;20028;-50
2023/08/01 11:27:19;;;;;;;3.38;1.00;;;21.20;70.80;;;;;;5040982;28;20040;-50
2023/08/01 11:29:45;;;;;;;4.82;1.15;;;21.10;70.70;;;;;;5039068;28;20024;-50
2023/08/01 11:32:11;;;;;;;3.38;1.42;;;21.20;70.70;;;;;;5049191;28;20033;-52
2023/08/01 11:34:44;;;;;;;2.72;1.00;;;21.20;70.40;;;;;;5046030;28;20021;-49
2023/08/01 11:37:11;;;;;;;2.35;1.20;;;21.20;70.20;;;;;;5048666;28;20351;-50
2023/08/01 11:39:37;;;;;;;3.70;1.00;;;21.20;70.20;;;;;;5038460;28;20052;-50
2023/08/01 11:42:03;;;;;;;2.35;0.80;;;21.20;70.10;;;;;;5048868;28;20071;-50
2023/08/01 11:44:29;;;;;;;2.95;0.98;;;21.20;70.50;;;;;;5047453;28;20029;-52
2023/08/01 11:46:55;;;;;;;2.90;1.30;;;21.20;70.30;;;;;;5044888;28;20041;-51
2023/08/01 11:49:21;;;;;;;2.03;1.02;;;21.20;70.20;;;;;;5042258;28;20025;-52
2023/08/01 11:51:46;;;;;;;3.80;1.88;;;21.20;70.20;;;;;;5047936;28;20029;-50
2023/08/01 11:54:13;;;;;;;2.08;1.40;;;21.20;70.20;;;;;;5038852;28;20032;-53
2023/08/01 11:56:41;;;;;;;2.78;1.05;;;21.20;70.20;;;;;;5032695;28;20021;-51
2023/08/01 11:59:14;;;;;;;1.65;1.00;;;21.20;70.10;;;;;;5037775;28;20033;-53
2023/08/01 12:01:45;;;;;;;2.42;1.13;;;21.30;70.10;;;;;;5035790;28;20128;-52
2023/08/01 12:04:12;;;;;;;2.75;1.20;;;21.20;70.30;;;;;;5047371;28;20036;-53
2023/08/01 12:06:38;;;;;;;3.55;1.27;;;21.20;70.20;;;;;;5034129;28;20026;-53
2023/08/01 12:09:10;;;;;;;2.10;1.05;;;21.20;70.10;;;;;;5031208;28;20099;-51
2023/08/01 12:11:36;;;;;;;1.73;1.30;;;21.30;70.30;;;;;;5025055;28;20509;-51
2023/08/01 12:14:13;;;;;;;2.58;1.40;;;21.30;70.10;;;;;;5038870;28;20021;-53
2023/08/01 12:16:45;;;;;;;1.45;1.08;;;21.20;70.10;;;;;;5048116;28;20045;-53
2023/08/01 12:19:19;;;;;;;2.97;1.38;;;21.20;70.20;;;;;;5047624;28;20120;-53
2023/08/01 12:21:45;;;;;;;2.97;0.90;;;21.30;70.10;;;;;;5041373;28;20107;-50
2023/08/01 12:24:10;;;;;;;1.63;1.10;;;21.20;69.90;;;;;;5043895;28;20041;-52
2023/08/01 12:26:36;;;;;;;2.75;1.20;;;21.30;69.80;;;;;;5039857;28;20029;-51
2023/08/01 12:29:01;;;;;;;2.45;1.38;;;21.30;69.80;;;;;;5046773;28;20049;-52
2023/08/01 12:31:27;;;;;;;2.97;1.73;;;21.30;70.10;;;;;;5045823;28;20095;-51
2023/08/01 12:33:53;;;;;;;1.70;1.30;;;21.30;70.10;;;;;;5047392;28;20044;-52
2023/08/01 12:36:19;;;;;;;2.65;1.23;;;21.30;70.30;;;;;;5038434;28;20378;-51
2023/08/01 12:38:45;;;;;;;2.92;1.52;;;21.30;69.80;;;;;;5040717;28;20445;-51
2023/08/01 12:41:10;;;;;;;3.95;1.92;;;21.20;70.20;;;;;;5044094;28;20071;-51
2023/08/01 12:43:36;;;;;;;4.07;1.33;;;21.30;70.70;;;;;;5039528;28;20029;-51